createdAt,value
2023-03-12T00:00:15.787Z,2.20
2023-03-12T00:02:44.508Z,1.80
2023-03-12T00:05:12.662Z,2.00
2023-03-12T00:07:40.600Z,2.30
2023-03-12T00:10:11.466Z,2.37
2023-03-12T00:12:39.267Z,2.07
2023-03-12T00:15:08.298Z,1.90
2023-03-12T00:17:36.391Z,2.17
2023-03-12T00:20:06.704Z,2.27
2023-03-12T00:22:34.848Z,2.30
2023-03-12T00:25:03.576Z,2.40
2023-03-12T00:27:32.903Z,2.63
2023-03-12T00:30:00.717Z,3.00
2023-03-12T00:32:28.496Z,2.00
2023-03-12T00:34:57.372Z,1.97
2023-03-12T00:37:25.236Z,2.47
2023-03-12T00:39:53.206Z,2.03
2023-03-12T00:42:22.147Z,2.37
2023-03-12T00:44:51.263Z,2.13
2023-03-12T00:47:19.114Z,2.10
2023-03-12T00:49:47.120Z,2.47
2023-03-12T00:52:15.324Z,2.27
2023-03-12T00:54:43.344Z,2.00
2023-03-12T00:57:11.282Z,2.13
2023-03-12T00:59:40.488Z,2.50
2023-03-12T01:02:10.354Z,2.50
2023-03-12T01:04:38.147Z,2.50
2023-03-12T01:07:06.261Z,2.30
2023-03-12T01:09:34.463Z,2.10
2023-03-12T01:12:02.392Z,2.33
2023-03-12T01:14:30.364Z,2.47
2023-03-12T01:16:58.200Z,1.70
2023-03-12T01:19:27.395Z,2.07
2023-03-12T01:21:55.144Z,2.30
2023-03-12T01:24:23.072Z,1.70
2023-03-12T01:26:50.862Z,2.53
2023-03-12T01:29:18.761Z,1.50
2023-03-12T01:31:46.571Z,1.60
2023-03-12T01:34:14.599Z,1.93
2023-03-12T01:36:45.040Z,1.80
2023-03-12T01:39:13.180Z,2.20
2023-03-12T01:41:42.289Z,1.73
2023-03-12T01:44:15.226Z,1.90
2023-03-12T01:46:45.667Z,2.23
2023-03-12T01:49:20.314Z,2.20
2023-03-12T01:51:53.556Z,1.60
2023-03-12T01:54:24.888Z,1.80
2023-03-12T01:56:53.540Z,1.80
2023-03-12T01:59:26.318Z,1.83
2023-03-12T02:01:54.490Z,1.87
2023-03-12T02:04:25.258Z,2.30
2023-03-12T02:07:00.415Z,1.70
2023-03-12T02:09:28.335Z,1.90
2023-03-12T02:11:56.286Z,1.93
2023-03-12T02:14:24.218Z,2.07
2023-03-12T02:16:53.135Z,1.70
2023-03-12T02:19:27.047Z,1.60
2023-03-12T02:21:56.767Z,1.70
2023-03-12T02:24:32.840Z,1.60
2023-03-12T02:27:03.508Z,2.00
2023-03-12T02:29:34.230Z,2.07
2023-03-12T02:32:04.220Z,1.90
2023-03-12T02:34:32.121Z,1.60
2023-03-12T02:36:59.910Z,1.57
2023-03-12T02:39:28.471Z,1.60
2023-03-12T02:41:58.699Z,1.37
2023-03-12T02:44:31.223Z,1.37
2023-03-12T02:47:01.197Z,1.47
2023-03-12T02:49:30.972Z,1.80
2023-03-12T02:52:00.347Z,1.40
2023-03-12T02:54:29.124Z,1.70
2023-03-12T02:56:57.628Z,1.47
2023-03-12T02:59:28.202Z,1.43
2023-03-12T03:02:00.337Z,1.90
2023-03-12T03:04:29.193Z,1.57
2023-03-12T03:06:57.287Z,2.07
2023-03-12T03:09:25.993Z,1.53
2023-03-12T03:11:54.310Z,1.50
2023-03-12T03:14:23.912Z,1.60
2023-03-12T03:16:53.756Z,1.70
2023-03-12T03:19:23.591Z,1.60
2023-03-12T03:21:51.466Z,1.33
2023-03-12T03:24:19.294Z,1.43
2023-03-12T03:26:47.062Z,1.60
2023-03-12T03:29:15.269Z,1.60
2023-03-12T03:31:43.138Z,1.87
2023-03-12T03:34:12.525Z,1.47
2023-03-12T03:36:40.314Z,2.00
2023-03-12T03:39:12.512Z,1.50
2023-03-12T03:41:40.863Z,1.67
2023-03-12T03:44:09.040Z,1.57
2023-03-12T03:46:38.809Z,1.60
2023-03-12T03:49:09.761Z,1.80
2023-03-12T03:51:42.612Z,1.90
2023-03-12T03:54:12.818Z,2.10
2023-03-12T03:56:42.180Z,1.80
2023-03-12T03:59:11.003Z,1.30
2023-03-12T04:01:40.535Z,1.40
2023-03-12T04:04:08.358Z,1.70
2023-03-12T04:06:37.293Z,1.67
2023-03-12T04:09:06.966Z,1.60
2023-03-12T04:11:36.753Z,1.87
2023-03-12T04:14:05.897Z,1.53
2023-03-12T04:16:35.347Z,1.33
2023-03-12T04:19:04.073Z,1.57
2023-03-12T04:21:32.060Z,1.20
2023-03-12T04:24:00.032Z,1.40
2023-03-12T04:26:33.270Z,1.40
2023-03-12T04:29:02.044Z,1.70
2023-03-12T04:31:30.975Z,1.60
2023-03-12T04:33:58.779Z,1.40
2023-03-12T04:36:26.643Z,1.83
2023-03-12T04:38:56.510Z,1.70
2023-03-12T04:41:28.832Z,2.10
2023-03-12T04:44:06.247Z,1.57
2023-03-12T04:46:35.704Z,1.43
2023-03-12T04:49:03.636Z,1.67
2023-03-12T04:51:33.432Z,1.60
2023-03-12T04:54:03.373Z,1.33
2023-03-12T04:56:31.290Z,1.53
2023-03-12T04:58:59.556Z,1.70
2023-03-12T05:01:32.412Z,1.43
2023-03-12T05:04:02.871Z,1.60
2023-03-12T05:06:30.943Z,1.47
2023-03-12T05:08:58.835Z,1.97
2023-03-12T05:11:26.772Z,1.40
2023-03-12T05:13:55.111Z,1.47
2023-03-12T05:16:24.562Z,1.40
2023-03-12T05:18:53.832Z,1.27
2023-03-12T05:21:23.694Z,1.40
2023-03-12T05:23:55.533Z,1.50
2023-03-12T05:26:27.927Z,1.20
2023-03-12T05:29:02.631Z,1.73
2023-03-12T05:31:33.050Z,1.70
2023-03-12T05:34:03.128Z,1.70
2023-03-12T05:36:31.763Z,1.57
2023-03-12T05:39:00.695Z,1.57
2023-03-12T05:41:32.054Z,1.83
2023-03-12T05:44:06.411Z,1.60
2023-03-12T05:46:34.231Z,1.43
2023-03-12T05:49:03.345Z,1.30
2023-03-12T05:51:33.073Z,1.43
2023-03-12T05:54:01.268Z,1.20
2023-03-12T05:56:29.599Z,1.63
2023-03-12T05:58:57.776Z,1.50
2023-03-12T06:01:28.915Z,1.27
2023-03-12T06:03:59.423Z,1.60
2023-03-12T06:06:31.159Z,1.50
2023-03-12T06:08:59.186Z,1.73
2023-03-12T06:11:26.992Z,1.80
2023-03-12T06:13:55.229Z,1.60
2023-03-12T06:16:25.714Z,2.10
2023-03-12T06:18:54.455Z,1.60
2023-03-12T06:21:23.925Z,1.80
2023-03-12T06:23:53.105Z,1.70
2023-03-12T06:26:26.577Z,1.60
2023-03-12T06:28:54.749Z,1.60
2023-03-12T06:31:23.324Z,23.03
2023-03-12T06:33:51.584Z,1.50
2023-03-12T06:36:19.392Z,1.50
2023-03-12T06:38:47.142Z,1.10
2023-03-12T06:41:18.954Z,1.40
2023-03-12T06:43:47.005Z,1.60
2023-03-12T06:46:16.959Z,1.67
2023-03-12T06:48:46.452Z,1.87
2023-03-12T06:51:16.213Z,1.60
2023-03-12T06:53:44.791Z,2.10
2023-03-12T06:56:13.175Z,2.00
2023-03-12T06:58:42.601Z,1.90
2023-03-12T07:01:10.571Z,1.80
2023-03-12T07:03:38.495Z,2.13
2023-03-12T07:06:13.536Z,2.13
2023-03-12T07:08:41.334Z,2.10
2023-03-12T07:11:09.105Z,1.70
2023-03-12T07:13:36.892Z,2.40
2023-03-12T07:16:07.357Z,2.20
2023-03-12T07:18:35.620Z,2.00
2023-03-12T07:21:03.709Z,1.93
2023-03-12T07:23:31.524Z,2.20
2023-03-12T07:25:59.308Z,2.07
2023-03-12T07:28:27.097Z,2.07
2023-03-12T07:31:00.526Z,2.00
2023-03-12T07:33:29.842Z,2.47
2023-03-12T07:35:57.747Z,1.83
2023-03-12T07:38:25.783Z,1.93
2023-03-12T07:40:54.787Z,2.43
2023-03-12T07:43:23.139Z,2.10
2023-03-12T07:45:54.165Z,2.23
2023-03-12T07:48:22.087Z,2.20
2023-03-12T07:50:51.295Z,2.20
2023-03-12T07:53:19.142Z,2.70
2023-03-12T07:55:48.525Z,2.30
2023-03-12T07:58:17.188Z,2.77
2023-03-12T08:00:45.802Z,2.30
2023-03-12T08:03:13.995Z,2.77
2023-03-12T08:05:42.029Z,2.67
2023-03-12T08:08:11.449Z,2.90
2023-03-12T08:10:39.275Z,2.97
2023-03-12T08:13:07.108Z,3.10
2023-03-12T08:15:34.909Z,3.17
2023-03-12T08:18:02.721Z,2.67
2023-03-12T08:20:30.531Z,2.90
2023-03-12T08:22:58.324Z,3.20
2023-03-12T08:25:27.643Z,3.10
2023-03-12T08:27:55.438Z,3.10
2023-03-12T08:30:23.502Z,2.93
2023-03-12T08:32:51.343Z,2.80
2023-03-12T08:35:19.244Z,3.07
2023-03-12T08:37:47.025Z,2.90
2023-03-12T08:40:15.102Z,2.70
2023-03-12T08:42:46.074Z,3.27
2023-03-12T08:45:15.757Z,3.13
2023-03-12T08:47:44.334Z,3.17
2023-03-12T08:50:13.977Z,3.70
2023-03-12T08:52:41.935Z,3.47
2023-03-12T08:55:10.445Z,2.60
2023-03-12T08:57:38.504Z,2.67
2023-03-12T09:00:13.951Z,2.90
2023-03-12T09:02:44.086Z,2.40
2023-03-12T09:05:12.203Z,2.87
2023-03-12T09:07:40.228Z,3.23
2023-03-12T09:10:08.670Z,2.77
2023-03-12T09:12:36.420Z,3.17
2023-03-12T09:15:05.342Z,2.77
2023-03-12T09:17:34.522Z,2.83
2023-03-12T09:20:02.277Z,2.57
2023-03-12T09:22:30.489Z,2.50
2023-03-12T09:24:58.301Z,2.73
2023-03-12T09:27:26.150Z,2.40
2023-03-12T09:30:00.560Z,2.67
2023-03-12T09:32:31.341Z,2.90
2023-03-12T09:35:00.545Z,2.77
2023-03-12T09:37:28.359Z,2.93
2023-03-12T09:39:56.286Z,3.27
2023-03-12T09:42:25.999Z,2.73
2023-03-12T09:44:56.011Z,2.67
2023-03-12T09:47:29.735Z,2.60
2023-03-12T09:50:05.711Z,2.33
2023-03-12T09:52:37.028Z,2.60
2023-03-12T09:55:12.494Z,2.30
2023-03-12T09:57:40.349Z,2.20
2023-03-12T10:00:13.699Z,2.07
2023-03-12T10:02:53.660Z,2.20
2023-03-12T10:05:27.558Z,2.10
2023-03-12T10:08:10.522Z,1.57
2023-03-12T10:10:54.947Z,1.73
2023-03-12T10:13:55.808Z,1.57
2023-03-12T10:16:37.547Z,1.57
2023-03-12T10:19:20.257Z,1.90
2023-03-12T10:21:56.825Z,1.50
2023-03-12T10:24:37.427Z,1.67
2023-03-12T10:27:12.830Z,1.60
2023-03-12T10:29:44.786Z,1.43
2023-03-12T10:32:18.733Z,1.60
2023-03-12T10:34:50.014Z,1.70
2023-03-12T10:37:23.981Z,1.80
2023-03-12T10:39:54.049Z,1.57
2023-03-12T10:42:24.200Z,1.40
2023-03-12T10:44:56.089Z,7.03
2023-03-12T10:47:34.754Z,1.60
2023-03-12T10:50:15.647Z,1.20
2023-03-12T10:52:46.121Z,1.43
2023-03-12T10:55:22.409Z,1.00
2023-03-12T10:57:51.482Z,1.40
2023-03-12T11:00:22.027Z,1.37
2023-03-12T11:03:00.122Z,1.10
2023-03-12T11:05:31.214Z,1.20
2023-03-12T11:08:01.971Z,1.50
2023-03-12T11:10:43.141Z,1.17
2023-03-12T11:13:26.370Z,1.30
2023-03-12T11:15:55.066Z,1.23
2023-03-12T11:18:30.370Z,1.30
2023-03-12T11:21:12.683Z,1.30
2023-03-12T11:23:43.880Z,1.30
2023-03-12T11:26:16.893Z,1.30
2023-03-12T11:28:47.490Z,1.40
2023-03-12T11:31:23.117Z,1.40
2023-03-12T11:33:53.158Z,1.00
2023-03-12T11:36:32.487Z,1.10
2023-03-12T11:39:06.723Z,1.30
2023-03-12T11:41:53.148Z,1.20
2023-03-12T11:44:28.946Z,1.10
2023-03-12T11:47:10.692Z,1.40
2023-03-12T11:49:58.164Z,1.90
2023-03-12T11:52:38.678Z,1.50
2023-03-12T11:55:31.723Z,1.83
2023-03-12T11:58:18.409Z,2.23
2023-03-12T12:00:52.810Z,2.37
2023-03-12T12:03:36.028Z,2.50
2023-03-12T12:06:08.648Z,2.50
2023-03-12T12:08:54.118Z,2.87
2023-03-12T12:11:29.175Z,2.90
2023-03-12T12:14:13.467Z,3.30
2023-03-12T12:16:55.699Z,3.27
2023-03-12T12:19:37.608Z,3.03
2023-03-12T12:22:24.165Z,3.67
2023-03-12T12:25:13.598Z,3.87
2023-03-12T12:27:50.379Z,3.00
2023-03-12T12:30:28.587Z,2.80
2023-03-12T12:33:15.535Z,3.00
2023-03-12T12:35:44.351Z,2.70
2023-03-12T12:38:17.522Z,2.70
2023-03-12T12:40:50.231Z,2.80
2023-03-12T12:43:29.254Z,3.00
2023-03-12T12:46:01.356Z,3.87
2023-03-12T12:48:34.945Z,3.27
2023-03-12T12:51:05.220Z,3.10
2023-03-12T12:53:41.901Z,3.60
2023-03-12T12:56:16.405Z,3.77
2023-03-12T12:59:03.992Z,3.40
2023-03-12T13:01:33.408Z,3.90
2023-03-12T13:04:06.955Z,4.10
2023-03-12T13:06:59.669Z,4.17
2023-03-12T13:09:40.136Z,4.63
2023-03-12T13:12:14.260Z,5.43
2023-03-12T13:14:45.112Z,6.80
2023-03-12T13:17:26.545Z,7.10
2023-03-12T13:20:01.695Z,7.33
2023-03-12T13:22:57.170Z,6.93
2023-03-12T13:25:42.857Z,6.90
2023-03-12T13:28:32.679Z,6.87
2023-03-12T13:31:02.529Z,6.00
2023-03-12T13:33:45.456Z,5.83
2023-03-12T13:36:24.526Z,5.18
2023-03-12T13:38:58.791Z,5.80
2023-03-12T13:41:36.422Z,5.25
2023-03-12T13:44:37.815Z,5.65
2023-03-12T13:47:22.981Z,5.80
2023-03-12T13:49:56.175Z,5.97
2023-03-12T13:52:26.104Z,6.80
2023-03-12T13:55:02.956Z,8.02
2023-03-12T13:57:38.919Z,7.05
2023-03-12T14:00:16.328Z,7.38
2023-03-12T14:02:50.760Z,7.43
2023-03-12T14:05:21.445Z,7.75
2023-03-12T14:08:11.858Z,7.68
2023-03-12T14:10:50.954Z,7.38
2023-03-12T14:13:32.964Z,7.38
2023-03-12T14:16:06.973Z,7.63
2023-03-12T14:18:38.394Z,7.60
2023-03-12T14:21:10.379Z,7.47
2023-03-12T14:23:41.825Z,7.18
2023-03-12T14:26:18.402Z,6.95
2023-03-12T14:28:48.063Z,7.57
2023-03-12T14:31:22.758Z,7.50
2023-03-12T14:33:57.062Z,7.80
2023-03-12T14:36:28.027Z,7.00
2023-03-12T14:39:01.914Z,6.50
2023-03-12T14:41:33.428Z,6.72
2023-03-12T14:44:06.740Z,6.65
2023-03-12T14:46:34.752Z,6.80
2023-03-12T14:49:04.313Z,6.45
2023-03-12T14:51:37.208Z,5.75
2023-03-12T14:54:05.196Z,7.60
2023-03-12T14:56:35.254Z,9.20
2023-03-12T14:59:21.169Z,9.77
2023-03-12T15:01:49.164Z,20.85
2023-03-12T15:04:21.598Z,9.27
2023-03-12T15:06:51.607Z,7.43
2023-03-12T15:09:22.034Z,7.45
2023-03-12T15:11:55.479Z,5.90
2023-03-12T15:14:24.857Z,5.70
2023-03-12T15:16:53.930Z,5.88
2023-03-12T15:19:27.415Z,6.18
2023-03-12T15:21:55.683Z,6.32
2023-03-12T15:24:23.924Z,6.57
2023-03-12T15:26:51.752Z,5.50
2023-03-12T15:29:27.199Z,6.13
2023-03-12T15:31:56.943Z,6.20
2023-03-12T15:34:33.072Z,6.75
2023-03-12T15:37:02.826Z,4.97
2023-03-12T15:39:32.991Z,6.70
2023-03-12T15:42:09.720Z,6.07
2023-03-12T15:44:45.669Z,6.05
2023-03-12T15:47:16.186Z,5.82
2023-03-12T15:49:52.881Z,5.03
2023-03-12T15:52:32.450Z,5.85
2023-03-12T15:55:03.028Z,5.28
2023-03-12T15:57:31.894Z,5.93
2023-03-12T16:00:25.409Z,5.88
2023-03-12T16:02:58.473Z,5.72
2023-03-12T16:05:30.788Z,5.72
2023-03-12T16:08:00.975Z,6.60
2023-03-12T16:10:29.592Z,5.40
2023-03-12T16:13:03.760Z,5.72
2023-03-12T16:15:34.288Z,5.38
2023-03-12T16:18:02.147Z,5.80
2023-03-12T16:20:31.559Z,6.65
2023-03-12T16:22:59.293Z,5.72
2023-03-12T16:25:27.827Z,5.22
2023-03-12T16:27:58.223Z,4.82
2023-03-12T16:30:29.062Z,6.03
2023-03-12T16:32:58.180Z,5.55
2023-03-12T16:35:27.623Z,5.30
2023-03-12T16:37:56.974Z,6.05
2023-03-12T16:40:33.346Z,5.38
2023-03-12T16:43:02.716Z,5.75
2023-03-12T16:45:31.989Z,6.05
2023-03-12T16:48:01.592Z,6.22
2023-03-12T16:50:29.463Z,5.50
2023-03-12T16:52:59.786Z,6.50
2023-03-12T16:55:30.679Z,5.10
2023-03-12T16:58:01.671Z,5.07
2023-03-12T17:00:31.822Z,6.40
2023-03-12T17:02:59.782Z,5.38
2023-03-12T17:05:29.001Z,6.15
2023-03-12T17:07:59.418Z,6.05
2023-03-12T17:10:27.578Z,6.40
2023-03-12T17:12:56.783Z,5.95
2023-03-12T17:15:26.894Z,6.05
2023-03-12T17:17:55.951Z,5.70
2023-03-12T17:20:25.084Z,5.45
2023-03-12T17:22:53.101Z,6.00
2023-03-12T17:25:25.999Z,5.85
2023-03-12T17:27:53.915Z,5.50
2023-03-12T17:30:22.074Z,5.85
2023-03-12T17:32:50.851Z,5.30
2023-03-12T17:35:19.228Z,5.63
2023-03-12T17:37:48.428Z,6.15
2023-03-12T17:40:16.897Z,5.25
2023-03-12T17:42:46.157Z,5.45
2023-03-12T17:45:14.024Z,5.53
2023-03-12T17:47:41.772Z,5.68
2023-03-12T17:50:10.902Z,6.00
2023-03-12T17:52:38.881Z,5.38
2023-03-12T17:55:11.080Z,6.85
2023-03-12T17:57:39.899Z,5.68
2023-03-12T18:00:12.935Z,5.72
2023-03-12T18:02:41.940Z,5.53
2023-03-12T18:05:11.334Z,5.20
2023-03-12T18:07:39.666Z,5.90
2023-03-12T18:10:11.029Z,5.95
2023-03-12T18:12:40.139Z,5.88
2023-03-12T18:15:12.509Z,5.22
2023-03-12T18:17:40.710Z,5.82
2023-03-12T18:20:13.369Z,5.75
2023-03-12T18:22:41.554Z,5.30
2023-03-12T18:25:10.398Z,6.50
2023-03-12T18:27:38.176Z,5.57
2023-03-12T18:30:08.215Z,5.45
2023-03-12T18:32:37.463Z,5.80
2023-03-12T18:35:06.315Z,5.38
2023-03-12T18:37:34.433Z,5.38
2023-03-12T18:40:02.327Z,5.15
2023-03-12T18:42:30.448Z,5.63
2023-03-12T18:44:58.158Z,5.10
2023-03-12T18:47:26.017Z,5.80
2023-03-12T18:49:55.872Z,5.68
2023-03-12T18:52:24.081Z,6.88
2023-03-12T18:54:51.927Z,5.38
2023-03-12T18:57:19.706Z,5.22
2023-03-12T18:59:47.477Z,4.82
2023-03-12T19:02:15.498Z,5.22
2023-03-12T19:04:43.410Z,5.63
2023-03-12T19:07:12.589Z,5.93
2023-03-12T19:09:40.354Z,5.57
2023-03-12T19:12:08.378Z,5.60
2023-03-12T19:14:36.177Z,5.32
2023-03-12T19:17:04.043Z,5.53
2023-03-12T19:19:31.803Z,5.10
2023-03-12T19:21:59.551Z,5.13
2023-03-12T19:24:28.749Z,5.45
2023-03-12T19:26:56.880Z,5.35
2023-03-12T19:29:24.666Z,5.88
2023-03-12T19:31:52.561Z,5.38
2023-03-12T19:34:21.914Z,5.20
2023-03-12T19:36:49.775Z,5.72
2023-03-12T19:39:21.694Z,5.10
2023-03-12T19:41:54.438Z,4.57
2023-03-12T19:44:22.287Z,5.00
2023-03-12T19:46:50.056Z,4.78
2023-03-12T19:49:17.811Z,5.63
2023-03-12T19:51:45.573Z,5.63
2023-03-12T19:54:13.306Z,5.88
2023-03-12T19:56:41.350Z,5.80
2023-03-12T19:59:10.598Z,4.97
2023-03-12T20:01:40.918Z,5.20
2023-03-12T20:04:08.807Z,5.20
2023-03-12T20:06:36.647Z,4.93
2023-03-12T20:09:05.314Z,4.80
2023-03-12T20:11:33.511Z,5.15
2023-03-12T20:14:01.334Z,5.13
2023-03-12T20:16:30.493Z,4.82
2023-03-12T20:18:58.490Z,4.60
2023-03-12T20:21:27.290Z,4.95
2023-03-12T20:23:56.502Z,5.07
2023-03-12T20:26:24.334Z,5.18
2023-03-12T20:28:52.203Z,5.18
2023-03-12T20:31:20.343Z,4.97
2023-03-12T20:33:49.560Z,4.72
2023-03-12T20:36:17.325Z,5.53
2023-03-12T20:38:45.326Z,5.38
2023-03-12T20:41:14.411Z,4.80
2023-03-12T20:43:42.629Z,5.60
2023-03-12T20:46:10.889Z,5.27
2023-03-12T20:48:38.846Z,6.72
2023-03-12T20:51:08.151Z,4.85
2023-03-12T20:53:36.048Z,5.10
2023-03-12T20:56:06.547Z,5.32
2023-03-12T20:58:34.937Z,5.88
2023-03-12T21:01:03.387Z,4.97
2023-03-12T21:03:31.331Z,5.00
2023-03-12T21:06:00.798Z,4.13
2023-03-12T21:08:31.089Z,4.90
2023-03-12T21:10:58.847Z,5.75
2023-03-12T21:13:27.403Z,5.65
2023-03-12T21:15:55.165Z,5.00
2023-03-12T21:18:23.831Z,5.55
2023-03-12T21:20:52.181Z,5.15
2023-03-12T21:23:20.123Z,5.50
2023-03-12T21:25:49.395Z,5.03
2023-03-12T21:28:18.185Z,5.55
2023-03-12T21:30:46.105Z,5.53
2023-03-12T21:33:13.993Z,4.20
2023-03-12T21:35:44.566Z,5.80
2023-03-12T21:38:12.523Z,5.28
2023-03-12T21:40:40.406Z,4.88
2023-03-12T21:43:09.670Z,4.97
2023-03-12T21:45:37.479Z,5.15
2023-03-12T21:48:05.763Z,5.07
2023-03-12T21:50:33.551Z,4.65
2023-03-12T21:53:02.428Z,4.80
2023-03-12T21:55:31.417Z,4.43
2023-03-12T21:57:59.188Z,4.90
2023-03-12T22:00:28.423Z,5.07
2023-03-12T22:02:56.185Z,4.55
2023-03-12T22:05:24.325Z,4.93
2023-03-12T22:07:52.173Z,4.90
2023-03-12T22:10:20.127Z,5.32
2023-03-12T22:12:47.921Z,4.88
2023-03-12T22:15:17.091Z,4.80
2023-03-12T22:17:46.221Z,4.83
2023-03-12T22:20:14.307Z,4.65
2023-03-12T22:22:42.079Z,4.90
2023-03-12T22:25:10.455Z,4.15
2023-03-12T22:27:38.249Z,4.93
2023-03-12T22:30:07.221Z,4.87
2023-03-12T22:32:35.134Z,5.07
2023-03-12T22:35:04.564Z,4.82
2023-03-12T22:37:32.394Z,4.72
2023-03-12T22:40:06.738Z,4.20
2023-03-12T22:42:34.714Z,4.30
2023-03-12T22:45:02.502Z,4.43
2023-03-12T22:47:30.454Z,4.32
2023-03-12T22:49:58.466Z,4.88
2023-03-12T22:52:27.594Z,4.40
2023-03-12T22:54:55.315Z,4.07
2023-03-12T22:57:23.164Z,4.03
2023-03-12T22:59:50.859Z,4.25
2023-03-12T23:02:18.802Z,5.47
2023-03-12T23:04:46.566Z,4.97
2023-03-12T23:07:17.377Z,4.03
2023-03-12T23:09:48.278Z,5.03
2023-03-12T23:12:16.079Z,4.70
2023-03-12T23:14:43.858Z,4.22
2023-03-12T23:17:11.761Z,4.30
2023-03-12T23:19:39.671Z,4.27
2023-03-12T23:22:08.140Z,4.47
2023-03-12T23:24:35.934Z,4.70
2023-03-12T23:27:06.146Z,4.20
2023-03-12T23:29:34.876Z,3.83
2023-03-12T23:32:03.049Z,4.35
2023-03-12T23:34:30.843Z,4.90
2023-03-12T23:36:58.827Z,4.45
2023-03-12T23:39:26.594Z,4.30
2023-03-12T23:41:56.247Z,4.13
2023-03-12T23:44:25.613Z,4.35
2023-03-12T23:46:53.345Z,4.32
2023-03-12T23:49:21.114Z,4.10
2023-03-12T23:51:48.834Z,4.63
2023-03-12T23:54:16.585Z,4.35
2023-03-12T23:56:44.372Z,4.47
2023-03-12T23:59:12.121Z,4.18
